Airfield :
LOGIN :

Register | Disclaimer

   EN    FR    IT 

 










Legend :    VFR   Marginal VFR   IFR   Intensive IFR   Very Intensive IFR
Visi :
Ceiling :
>= 8 km
>= 3000ft
5 to 8 km
1000 to 3000 ft
1500m to 5 km
500 to 1000 ft
800 to 1500m
200 to 500 ft
< 800m
< 200 ft
Symbols :   Thunderstorms  Fog  Heavy snow  Heavy precipitations  Wind > 20 kt
SIGMETs :     Misc.  Thunderstorms  Icing  Turbulence  Mountain Waves  Volcanic Ashes






- Airport Elevation : 266 ft
- IATA code : NCL


EGNT - Newcastle

CURRENT METAR :
  • 011950Z 28012KT CAVOK 07/02 Q1016

EXPIRED METARs :
  • 011920Z 28013KT CAVOK 07/02 Q1016
  • 011850Z 28017KT CAVOK 08/02 Q1016
  • 011820Z 27015KT CAVOK 09/02 Q1016
  • 011750Z 27012KT CAVOK 09/02 Q1017

TAF TAF EGNT
Valid from the 01 at 18:00 until the 02 at 00:00 UTC


011753Z 0118/0124 27010KT 9999 SCT040
PROB30
TEMPO 0121/0124 BKN014
ATIS : +44 191 214 3400



MET'MAP, your aeronautical weather chart ! - Copyright ORBIFLY December 2007 - Disclaimer

ORBIFLY MET'MAP TEAM :

Programming & Development : Alexandra Zaïnal
Concept & original design : Baudouin d'Aumeries
Assistance for programming : Marc-Olivier Méhu
Technical & hardware support : Manuel Goepfert

Contact : metmap@orbifly.com




SOURCES & CREDITS :

   NOAA